sensor_id;sensor_type;location;lat;lon;timestamp;temperature;humidity
13245;DHT22;6689;53.400;12.486;2023-08-17T00:00:36;21.20;99.90
13245;DHT22;6689;53.400;12.486;2023-08-17T00:03:03;21.30;99.90
13245;DHT22;6689;53.400;12.486;2023-08-17T00:05:31;21.30;99.90
13245;DHT22;6689;53.400;12.486;2023-08-17T00:08:00;21.10;99.90
13245;DHT22;6689;53.400;12.486;2023-08-17T00:10:29;21.20;99.90
13245;DHT22;6689;53.400;12.486;2023-08-17T00:12:58;21.20;99.90
13245;DHT22;6689;53.400;12.486;2023-08-17T00:15:26;21.10;99.90
13245;DHT22;6689;53.400;12.486;2023-08-17T00:17:53;21.20;99.90
13245;DHT22;6689;53.400;12.486;2023-08-17T00:20:21;21.10;99.90
13245;DHT22;6689;53.400;12.486;2023-08-17T00:22:49;21.10;99.90
13245;DHT22;6689;53.400;12.486;2023-08-17T00:25:18;21.00;99.90
13245;DHT22;6689;53.400;12.486;2023-08-17T00:27:46;20.90;99.90
13245;DHT22;6689;53.400;12.486;2023-08-17T00:30:15;21.00;99.90
13245;DHT22;6689;53.400;12.486;2023-08-17T00:32:44;21.00;99.90
13245;DHT22;6689;53.400;12.486;2023-08-17T00:35:11;21.10;99.90
13245;DHT22;6689;53.400;12.486;2023-08-17T00:37:39;21.10;99.90
13245;DHT22;6689;53.400;12.486;2023-08-17T00:40:07;21.10;99.90
13245;DHT22;6689;53.400;12.486;2023-08-17T00:42:34;21.10;99.90
13245;DHT22;6689;53.400;12.486;2023-08-17T00:45:02;21.00;99.90
13245;DHT22;6689;53.400;12.486;2023-08-17T00:47:33;21.00;99.90
13245;DHT22;6689;53.400;12.486;2023-08-17T00:50:02;20.90;99.90
13245;DHT22;6689;53.400;12.486;2023-08-17T00:52:32;20.90;99.90
13245;DHT22;6689;53.400;12.486;2023-08-17T00:55:00;20.90;99.90
13245;DHT22;6689;53.400;12.486;2023-08-17T00:57:30;20.90;99.90
13245;DHT22;6689;53.400;12.486;2023-08-17T00:59:58;20.80;99.90
13245;DHT22;6689;53.400;12.486;2023-08-17T01:02:26;20.70;99.90
13245;DHT22;6689;53.400;12.486;2023-08-17T01:04:55;20.60;99.90
13245;DHT22;6689;53.400;12.486;2023-08-17T01:07:24;20.60;99.90
13245;DHT22;6689;53.400;12.486;2023-08-17T01:09:51;20.40;99.90
13245;DHT22;6689;53.400;12.486;2023-08-17T01:12:25;20.50;99.90
13245;DHT22;6689;53.400;12.486;2023-08-17T01:15:02;20.50;99.90
13245;DHT22;6689;53.400;12.486;2023-08-17T01:17:36;20.40;99.90
13245;DHT22;6689;53.400;12.486;2023-08-17T01:20:08;20.40;99.90
13245;DHT22;6689;53.400;12.486;2023-08-17T01:22:41;20.30;99.90
13245;DHT22;6689;53.400;12.486;2023-08-17T01:25:10;20.20;99.90
13245;DHT22;6689;53.400;12.486;2023-08-17T01:27:40;20.20;99.90
13245;DHT22;6689;53.400;12.486;2023-08-17T01:30:09;20.10;99.90
13245;DHT22;6689;53.400;12.486;2023-08-17T01:32:40;20.10;99.90
13245;DHT22;6689;53.400;12.486;2023-08-17T01:35:18;20.10;99.90
13245;DHT22;6689;53.400;12.486;2023-08-17T01:37:53;20.00;99.90
13245;DHT22;6689;53.400;12.486;2023-08-17T01:40:24;20.00;99.90
13245;DHT22;6689;53.400;12.486;2023-08-17T01:42:55;20.00;99.90
13245;DHT22;6689;53.400;12.486;2023-08-17T01:45:22;20.00;99.90
13245;DHT22;6689;53.400;12.486;2023-08-17T01:47:50;20.00;99.90
13245;DHT22;6689;53.400;12.486;2023-08-17T01:50:17;20.00;99.90
13245;DHT22;6689;53.400;12.486;2023-08-17T01:52:44;20.00;99.90
13245;DHT22;6689;53.400;12.486;2023-08-17T01:55:11;20.00;99.90
13245;DHT22;6689;53.400;12.486;2023-08-17T01:57:41;20.00;99.90
13245;DHT22;6689;53.400;12.486;2023-08-17T02:00:09;20.00;99.90
13245;DHT22;6689;53.400;12.486;2023-08-17T02:02:38;20.10;99.90
13245;DHT22;6689;53.400;12.486;2023-08-17T02:05:06;20.00;99.90
13245;DHT22;6689;53.400;12.486;2023-08-17T02:07:34;20.00;99.90
13245;DHT22;6689;53.400;12.486;2023-08-17T02:10:01;20.10;99.90
13245;DHT22;6689;53.400;12.486;2023-08-17T02:12:29;20.10;99.90
13245;DHT22;6689;53.400;12.486;2023-08-17T02:14:57;20.20;99.90
13245;DHT22;6689;53.400;12.486;2023-08-17T02:17:25;20.20;99.90
13245;DHT22;6689;53.400;12.486;2023-08-17T02:19:52;20.10;99.90
13245;DHT22;6689;53.400;12.486;2023-08-17T02:22:20;20.00;99.90
13245;DHT22;6689;53.400;12.486;2023-08-17T02:24:48;20.10;99.90
13245;DHT22;6689;53.400;12.486;2023-08-17T02:27:15;20.10;99.90
13245;DHT22;6689;53.400;12.486;2023-08-17T02:29:43;20.00;99.90
13245;DHT22;6689;53.400;12.486;2023-08-17T02:32:11;20.00;99.90
13245;DHT22;6689;53.400;12.486;2023-08-17T02:34:39;20.00;99.90
13245;DHT22;6689;53.400;12.486;2023-08-17T02:37:07;20.00;99.90
13245;DHT22;6689;53.400;12.486;2023-08-17T02:39:34;20.00;99.90
13245;DHT22;6689;53.400;12.486;2023-08-17T02:42:01;19.90;99.90
13245;DHT22;6689;53.400;12.486;2023-08-17T02:44:28;20.00;99.90
13245;DHT22;6689;53.400;12.486;2023-08-17T02:46:56;20.00;99.90
13245;DHT22;6689;53.400;12.486;2023-08-17T02:49:25;20.00;99.90
13245;DHT22;6689;53.400;12.486;2023-08-17T02:51:54;20.00;99.90
13245;DHT22;6689;53.400;12.486;2023-08-17T02:54:22;20.00;99.90
13245;DHT22;6689;53.400;12.486;2023-08-17T02:56:49;20.00;99.90
13245;DHT22;6689;53.400;12.486;2023-08-17T02:59:16;19.90;99.90
13245;DHT22;6689;53.400;12.486;2023-08-17T03:01:45;19.90;99.90
13245;DHT22;6689;53.400;12.486;2023-08-17T03:04:12;19.90;99.90
13245;DHT22;6689;53.400;12.486;2023-08-17T03:06:42;19.90;99.90
13245;DHT22;6689;53.400;12.486;2023-08-17T03:09:09;19.80;99.90
13245;DHT22;6689;53.400;12.486;2023-08-17T03:11:37;19.70;99.90
13245;DHT22;6689;53.400;12.486;2023-08-17T03:14:04;19.70;99.90
13245;DHT22;6689;53.400;12.486;2023-08-17T03:16:31;19.70;99.90
13245;DHT22;6689;53.400;12.486;2023-08-17T03:18:58;19.50;99.90
13245;DHT22;6689;53.400;12.486;2023-08-17T03:21:26;19.60;99.90
13245;DHT22;6689;53.400;12.486;2023-08-17T03:23:55;19.70;99.90
13245;DHT22;6689;53.400;12.486;2023-08-17T03:26:22;19.60;99.90
13245;DHT22;6689;53.400;12.486;2023-08-17T03:28:51;19.60;99.90
13245;DHT22;6689;53.400;12.486;2023-08-17T03:31:20;19.70;99.90
13245;DHT22;6689;53.400;12.486;2023-08-17T03:33:47;19.70;99.90
13245;DHT22;6689;53.400;12.486;2023-08-17T03:36:16;19.70;99.90
13245;DHT22;6689;53.400;12.486;2023-08-17T03:38:45;19.60;99.90
13245;DHT22;6689;53.400;12.486;2023-08-17T03:41:14;19.70;99.90
13245;DHT22;6689;53.400;12.486;2023-08-17T03:43:41;19.70;99.90
13245;DHT22;6689;53.400;12.486;2023-08-17T03:46:09;19.60;99.90
13245;DHT22;6689;53.400;12.486;2023-08-17T03:48:36;19.60;99.90
13245;DHT22;6689;53.400;12.486;2023-08-17T03:51:03;19.60;99.90
13245;DHT22;6689;53.400;12.486;2023-08-17T03:53:30;19.50;99.90
13245;DHT22;6689;53.400;12.486;2023-08-17T03:55:58;19.60;99.90
13245;DHT22;6689;53.400;12.486;2023-08-17T03:58:26;19.60;99.90
13245;DHT22;6689;53.400;12.486;2023-08-17T04:00:59;19.60;99.90
13245;DHT22;6689;53.400;12.486;2023-08-17T04:03:27;19.50;99.90
13245;DHT22;6689;53.400;12.486;2023-08-17T04:05:54;19.50;99.90
13245;DHT22;6689;53.400;12.486;2023-08-17T04:08:22;19.50;99.90
13245;DHT22;6689;53.400;12.486;2023-08-17T04:10:49;19.60;99.90
13245;DHT22;6689;53.400;12.486;2023-08-17T04:13:16;19.60;99.90
13245;DHT22;6689;53.400;12.486;2023-08-17T04:15:45;19.70;99.90
13245;DHT22;6689;53.400;12.486;2023-08-17T04:18:13;19.60;99.90
13245;DHT22;6689;53.400;12.486;2023-08-17T04:20:40;19.50;99.90
13245;DHT22;6689;53.400;12.486;2023-08-17T04:23:08;19.60;99.90
13245;DHT22;6689;53.400;12.486;2023-08-17T04:25:35;19.60;99.90
13245;DHT22;6689;53.400;12.486;2023-08-17T04:28:03;19.60;99.90
13245;DHT22;6689;53.400;12.486;2023-08-17T04:30:32;19.60;99.90
13245;DHT22;6689;53.400;12.486;2023-08-17T04:33:00;19.60;99.90
13245;DHT22;6689;53.400;12.486;2023-08-17T04:35:28;19.60;99.90
13245;DHT22;6689;53.400;12.486;2023-08-17T04:37:56;19.60;99.90
13245;DHT22;6689;53.400;12.486;2023-08-17T04:40:24;19.60;99.90
13245;DHT22;6689;53.400;12.486;2023-08-17T04:42:51;19.60;99.90
13245;DHT22;6689;53.400;12.486;2023-08-17T04:45:19;19.50;99.90
13245;DHT22;6689;53.400;12.486;2023-08-17T04:47:47;19.60;99.90
13245;DHT22;6689;53.400;12.486;2023-08-17T04:50:18;19.50;99.90
13245;DHT22;6689;53.400;12.486;2023-08-17T04:52:45;19.50;99.90
13245;DHT22;6689;53.400;12.486;2023-08-17T04:55:13;19.50;99.90
13245;DHT22;6689;53.400;12.486;2023-08-17T04:57:40;19.60;99.90
13245;DHT22;6689;53.400;12.486;2023-08-17T05:00:09;19.50;99.90
13245;DHT22;6689;53.400;12.486;2023-08-17T05:02:37;19.40;99.90
13245;DHT22;6689;53.400;12.486;2023-08-17T05:05:06;19.50;99.90
13245;DHT22;6689;53.400;12.486;2023-08-17T05:07:36;19.50;99.90
13245;DHT22;6689;53.400;12.486;2023-08-17T05:10:03;19.60;99.90
13245;DHT22;6689;53.400;12.486;2023-08-17T05:12:32;19.60;99.90
13245;DHT22;6689;53.400;12.486;2023-08-17T05:15:00;19.60;99.90
13245;DHT22;6689;53.400;12.486;2023-08-17T05:17:27;19.50;99.90
13245;DHT22;6689;53.400;12.486;2023-08-17T05:19:56;19.50;99.90
13245;DHT22;6689;53.400;12.486;2023-08-17T05:22:23;19.50;99.90
13245;DHT22;6689;53.400;12.486;2023-08-17T05:24:55;19.60;99.90
13245;DHT22;6689;53.400;12.486;2023-08-17T05:27:23;19.50;99.90
13245;DHT22;6689;53.400;12.486;2023-08-17T05:29:52;19.60;99.90
13245;DHT22;6689;53.400;12.486;2023-08-17T05:32:19;19.50;99.90
13245;DHT22;6689;53.400;12.486;2023-08-17T05:34:47;19.50;99.90
13245;DHT22;6689;53.400;12.486;2023-08-17T05:37:14;19.50;99.90
13245;DHT22;6689;53.400;12.486;2023-08-17T05:39:42;19.50;99.90
13245;DHT22;6689;53.400;12.486;2023-08-17T05:42:11;19.50;99.90
13245;DHT22;6689;53.400;12.486;2023-08-17T05:44:40;19.50;99.90
13245;DHT22;6689;53.400;12.486;2023-08-17T05:47:07;19.50;99.90
13245;DHT22;6689;53.400;12.486;2023-08-17T05:49:34;19.50;99.90
13245;DHT22;6689;53.400;12.486;2023-08-17T05:52:04;19.50;99.90
13245;DHT22;6689;53.400;12.486;2023-08-17T05:54:31;19.50;99.90
13245;DHT22;6689;53.400;12.486;2023-08-17T05:56:58;19.50;99.90
13245;DHT22;6689;53.400;12.486;2023-08-17T05:59:27;19.50;99.90
13245;DHT22;6689;53.400;12.486;2023-08-17T06:01:54;19.50;99.90
13245;DHT22;6689;53.400;12.486;2023-08-17T06:04:23;19.50;99.90
13245;DHT22;6689;53.400;12.486;2023-08-17T06:06:51;19.60;99.90
13245;DHT22;6689;53.400;12.486;2023-08-17T06:09:18;19.50;99.90
13245;DHT22;6689;53.400;12.486;2023-08-17T06:11:46;19.50;99.90
13245;DHT22;6689;53.400;12.486;2023-08-17T06:14:13;19.50;99.90
13245;DHT22;6689;53.400;12.486;2023-08-17T06:16:41;19.50;99.90
13245;DHT22;6689;53.400;12.486;2023-08-17T06:19:08;19.50;99.90
13245;DHT22;6689;53.400;12.486;2023-08-17T06:21:36;19.50;99.90
13245;DHT22;6689;53.400;12.486;2023-08-17T06:24:04;19.50;99.90
13245;DHT22;6689;53.400;12.486;2023-08-17T06:26:31;19.50;99.90
13245;DHT22;6689;53.400;12.486;2023-08-17T06:28:58;19.40;99.90
13245;DHT22;6689;53.400;12.486;2023-08-17T06:31:26;19.50;99.90
13245;DHT22;6689;53.400;12.486;2023-08-17T06:33:55;19.60;99.90
13245;DHT22;6689;53.400;12.486;2023-08-17T06:36:25;19.50;99.90
13245;DHT22;6689;53.400;12.486;2023-08-17T06:38:52;19.50;99.90
13245;DHT22;6689;53.400;12.486;2023-08-17T06:41:19;19.60;99.90
13245;DHT22;6689;53.400;12.486;2023-08-17T06:43:46;19.70;99.90
13245;DHT22;6689;53.400;12.486;2023-08-17T06:46:14;19.60;99.90
13245;DHT22;6689;53.400;12.486;2023-08-17T06:48:42;19.60;99.90
13245;DHT22;6689;53.400;12.486;2023-08-17T06:51:10;19.70;99.90
13245;DHT22;6689;53.400;12.486;2023-08-17T06:53:38;19.70;99.90
13245;DHT22;6689;53.400;12.486;2023-08-17T06:56:05;19.80;99.90
13245;DHT22;6689;53.400;12.486;2023-08-17T06:58:32;19.80;99.90
13245;DHT22;6689;53.400;12.486;2023-08-17T07:01:01;19.80;99.90
13245;DHT22;6689;53.400;12.486;2023-08-17T07:03:28;19.80;99.90
13245;DHT22;6689;53.400;12.486;2023-08-17T07:05:56;19.90;99.90
13245;DHT22;6689;53.400;12.486;2023-08-17T07:08:26;19.90;99.90
13245;DHT22;6689;53.400;12.486;2023-08-17T07:10:53;19.90;99.90
13245;DHT22;6689;53.400;12.486;2023-08-17T07:13:21;20.00;99.90
13245;DHT22;6689;53.400;12.486;2023-08-17T07:15:50;20.00;99.90
13245;DHT22;6689;53.400;12.486;2023-08-17T07:18:17;20.00;99.90
13245;DHT22;6689;53.400;12.486;2023-08-17T07:20:44;20.00;99.90
13245;DHT22;6689;53.400;12.486;2023-08-17T07:23:11;20.10;99.90
13245;DHT22;6689;53.400;12.486;2023-08-17T07:25:40;20.10;99.90
13245;DHT22;6689;53.400;12.486;2023-08-17T07:28:08;20.10;99.90
13245;DHT22;6689;53.400;12.486;2023-08-17T07:30:35;20.10;99.90
13245;DHT22;6689;53.400;12.486;2023-08-17T07:33:03;20.20;99.90
13245;DHT22;6689;53.400;12.486;2023-08-17T07:35:34;20.20;99.90
13245;DHT22;6689;53.400;12.486;2023-08-17T07:38:02;20.20;99.90
13245;DHT22;6689;53.400;12.486;2023-08-17T07:40:29;20.20;99.90
13245;DHT22;6689;53.400;12.486;2023-08-17T07:42:58;20.30;99.90
13245;DHT22;6689;53.400;12.486;2023-08-17T07:45:25;20.30;99.90
13245;DHT22;6689;53.400;12.486;2023-08-17T07:47:54;20.30;99.90
13245;DHT22;6689;53.400;12.486;2023-08-17T07:50:24;20.30;99.90
13245;DHT22;6689;53.400;12.486;2023-08-17T07:52:52;20.30;99.90
13245;DHT22;6689;53.400;12.486;2023-08-17T07:55:19;20.30;99.90
13245;DHT22;6689;53.400;12.486;2023-08-17T07:57:49;20.20;99.90
13245;DHT22;6689;53.400;12.486;2023-08-17T08:00:21;20.20;99.90
13245;DHT22;6689;53.400;12.486;2023-08-17T08:02:48;20.10;99.90
13245;DHT22;6689;53.400;12.486;2023-08-17T08:05:15;20.10;99.90
13245;DHT22;6689;53.400;12.486;2023-08-17T08:07:42;20.20;99.90
13245;DHT22;6689;53.400;12.486;2023-08-17T08:10:10;20.20;99.90
13245;DHT22;6689;53.400;12.486;2023-08-17T08:12:37;20.20;99.90
13245;DHT22;6689;53.400;12.486;2023-08-17T08:15:06;20.20;99.90
13245;DHT22;6689;53.400;12.486;2023-08-17T08:17:37;20.20;99.90
13245;DHT22;6689;53.400;12.486;2023-08-17T08:20:06;20.20;99.90
13245;DHT22;6689;53.400;12.486;2023-08-17T08:22:33;20.10;99.90
13245;DHT22;6689;53.400;12.486;2023-08-17T08:25:02;20.20;99.90
13245;DHT22;6689;53.400;12.486;2023-08-17T08:27:29;20.10;99.90
13245;DHT22;6689;53.400;12.486;2023-08-17T08:29:58;20.20;99.90
13245;DHT22;6689;53.400;12.486;2023-08-17T08:32:25;20.20;99.90
13245;DHT22;6689;53.400;12.486;2023-08-17T08:34:54;20.30;99.90
13245;DHT22;6689;53.400;12.486;2023-08-17T08:37:21;20.40;99.90
13245;DHT22;6689;53.400;12.486;2023-08-17T08:39:49;20.40;99.90
13245;DHT22;6689;53.400;12.486;2023-08-17T08:42:19;20.40;99.90
13245;DHT22;6689;53.400;12.486;2023-08-17T08:44:47;20.50;99.90
13245;DHT22;6689;53.400;12.486;2023-08-17T08:47:14;20.40;99.90
13245;DHT22;6689;53.400;12.486;2023-08-17T08:49:49;20.30;99.90
13245;DHT22;6689;53.400;12.486;2023-08-17T08:52:22;20.40;99.90
13245;DHT22;6689;53.400;12.486;2023-08-17T08:54:50;20.50;99.90
13245;DHT22;6689;53.400;12.486;2023-08-17T08:57:20;20.50;99.90
13245;DHT22;6689;53.400;12.486;2023-08-17T08:59:48;20.50;99.90
13245;DHT22;6689;53.400;12.486;2023-08-17T09:02:16;20.50;99.90
13245;DHT22;6689;53.400;12.486;2023-08-17T09:04:44;20.40;99.90
13245;DHT22;6689;53.400;12.486;2023-08-17T09:07:12;20.40;99.90
13245;DHT22;6689;53.400;12.486;2023-08-17T09:09:42;20.50;99.90
13245;DHT22;6689;53.400;12.486;2023-08-17T09:12:09;20.40;99.90
13245;DHT22;6689;53.400;12.486;2023-08-17T09:14:38;20.40;99.90
13245;DHT22;6689;53.400;12.486;2023-08-17T09:17:07;20.40;99.90
13245;DHT22;6689;53.400;12.486;2023-08-17T09:19:36;20.40;99.90
13245;DHT22;6689;53.400;12.486;2023-08-17T09:22:03;20.40;99.90
13245;DHT22;6689;53.400;12.486;2023-08-17T09:24:37;20.40;99.90
13245;DHT22;6689;53.400;12.486;2023-08-17T09:27:12;20.40;99.90
13245;DHT22;6689;53.400;12.486;2023-08-17T09:29:43;20.30;99.90
13245;DHT22;6689;53.400;12.486;2023-08-17T09:32:11;20.30;99.90
13245;DHT22;6689;53.400;12.486;2023-08-17T09:34:41;20.50;99.90
13245;DHT22;6689;53.400;12.486;2023-08-17T09:37:09;20.40;99.90
13245;DHT22;6689;53.400;12.486;2023-08-17T09:39:38;20.50;99.90
13245;DHT22;6689;53.400;12.486;2023-08-17T09:42:10;20.50;99.90
13245;DHT22;6689;53.400;12.486;2023-08-17T09:44:38;20.60;99.90
13245;DHT22;6689;53.400;12.486;2023-08-17T09:47:05;20.70;99.90
13245;DHT22;6689;53.400;12.486;2023-08-17T09:49:33;20.70;99.90
13245;DHT22;6689;53.400;12.486;2023-08-17T09:52:00;20.80;99.90
13245;DHT22;6689;53.400;12.486;2023-08-17T09:54:32;20.90;99.90
13245;DHT22;6689;53.400;12.486;2023-08-17T09:57:00;21.00;99.90
13245;DHT22;6689;53.400;12.486;2023-08-17T09:59:30;21.10;99.90
13245;DHT22;6689;53.400;12.486;2023-08-17T10:01:58;21.30;99.90
13245;DHT22;6689;53.400;12.486;2023-08-17T10:04:28;21.40;99.90
13245;DHT22;6689;53.400;12.486;2023-08-17T10:06:59;21.20;99.90
13245;DHT22;6689;53.400;12.486;2023-08-17T10:09:31;21.30;99.90
13245;DHT22;6689;53.400;12.486;2023-08-17T10:12:02;21.30;99.90
13245;DHT22;6689;53.400;12.486;2023-08-17T10:14:38;21.50;99.90
13245;DHT22;6689;53.400;12.486;2023-08-17T10:17:14;21.50;99.90
13245;DHT22;6689;53.400;12.486;2023-08-17T10:19:46;21.80;99.90
13245;DHT22;6689;53.400;12.486;2023-08-17T10:22:20;21.90;99.90
13245;DHT22;6689;53.400;12.486;2023-08-17T10:24:51;22.10;99.90
13245;DHT22;6689;53.400;12.486;2023-08-17T10:27:22;21.80;99.90
13245;DHT22;6689;53.400;12.486;2023-08-17T10:29:51;22.30;99.90
13245;DHT22;6689;53.400;12.486;2023-08-17T10:32:20;22.40;99.90
13245;DHT22;6689;53.400;12.486;2023-08-17T10:34:49;22.40;99.90
13245;DHT22;6689;53.400;12.486;2023-08-17T10:37:17;22.40;99.90
13245;DHT22;6689;53.400;12.486;2023-08-17T10:39:47;22.50;99.90
13245;DHT22;6689;53.400;12.486;2023-08-17T10:42:30;22.60;99.90
13245;DHT22;6689;53.400;12.486;2023-08-17T10:45:00;22.50;99.90
13245;DHT22;6689;53.400;12.486;2023-08-17T10:47:31;22.50;99.90
13245;DHT22;6689;53.400;12.486;2023-08-17T10:50:03;22.30;99.90
13245;DHT22;6689;53.400;12.486;2023-08-17T10:52:32;22.30;99.90
13245;DHT22;6689;53.400;12.486;2023-08-17T10:55:00;22.30;99.90
13245;DHT22;6689;53.400;12.486;2023-08-17T10:57:29;22.40;99.90
13245;DHT22;6689;53.400;12.486;2023-08-17T11:00:22;22.30;99.90
13245;DHT22;6689;53.400;12.486;2023-08-17T11:02:56;22.30;99.90
13245;DHT22;6689;53.400;12.486;2023-08-17T11:08:32;22.40;99.90
13245;DHT22;6689;53.400;12.486;2023-08-17T11:11:03;22.40;99.90
13245;DHT22;6689;53.400;12.486;2023-08-17T11:13:32;22.40;99.90
13245;DHT22;6689;53.400;12.486;2023-08-17T11:16:01;22.40;99.90
13245;DHT22;6689;53.400;12.486;2023-08-17T11:18:29;22.40;99.90
13245;DHT22;6689;53.400;12.486;2023-08-17T11:20:57;22.40;99.90
13245;DHT22;6689;53.400;12.486;2023-08-17T11:23:24;22.20;99.90
13245;DHT22;6689;53.400;12.486;2023-08-17T11:25:52;22.30;99.90
13245;DHT22;6689;53.400;12.486;2023-08-17T11:28:21;22.30;99.90
13245;DHT22;6689;53.400;12.486;2023-08-17T11:30:56;22.40;99.90
13245;DHT22;6689;53.400;12.486;2023-08-17T11:33:28;22.40;99.90
13245;DHT22;6689;53.400;12.486;2023-08-17T11:35:56;22.40;99.90
13245;DHT22;6689;53.400;12.486;2023-08-17T11:38:24;22.30;99.90
13245;DHT22;6689;53.400;12.486;2023-08-17T11:40:52;22.30;99.90
13245;DHT22;6689;53.400;12.486;2023-08-17T11:43:21;22.20;99.90
13245;DHT22;6689;53.400;12.486;2023-08-17T11:45:49;22.30;99.90
13245;DHT22;6689;53.400;12.486;2023-08-17T11:48:18;22.20;99.90
13245;DHT22;6689;53.400;12.486;2023-08-17T11:50:48;22.10;99.90
13245;DHT22;6689;53.400;12.486;2023-08-17T11:53:16;22.10;99.90
13245;DHT22;6689;53.400;12.486;2023-08-17T11:55:44;22.10;99.90
13245;DHT22;6689;53.400;12.486;2023-08-17T11:58:11;22.10;99.90
13245;DHT22;6689;53.400;12.486;2023-08-17T12:00:42;22.10;99.90
13245;DHT22;6689;53.400;12.486;2023-08-17T12:03:13;22.20;99.90
13245;DHT22;6689;53.400;12.486;2023-08-17T12:05:43;22.30;99.90
13245;DHT22;6689;53.400;12.486;2023-08-17T12:08:18;22.40;99.90
13245;DHT22;6689;53.400;12.486;2023-08-17T12:10:49;22.30;99.90
13245;DHT22;6689;53.400;12.486;2023-08-17T12:13:19;22.40;99.90
13245;DHT22;6689;53.400;12.486;2023-08-17T12:15:46;22.50;99.90
13245;DHT22;6689;53.400;12.486;2023-08-17T12:18:16;22.50;99.90
13245;DHT22;6689;53.400;12.486;2023-08-17T12:20:43;22.60;99.90
13245;DHT22;6689;53.400;12.486;2023-08-17T12:23:12;22.80;99.90
13245;DHT22;6689;53.400;12.486;2023-08-17T12:25:39;23.00;99.90
13245;DHT22;6689;53.400;12.486;2023-08-17T12:28:06;23.20;99.90
13245;DHT22;6689;53.400;12.486;2023-08-17T12:30:34;23.40;99.90
13245;DHT22;6689;53.400;12.486;2023-08-17T12:33:03;23.60;99.90
13245;DHT22;6689;53.400;12.486;2023-08-17T12:35:32;23.90;99.90
13245;DHT22;6689;53.400;12.486;2023-08-17T12:38:00;24.10;99.90
13245;DHT22;6689;53.400;12.486;2023-08-17T12:40:28;24.30;99.90
13245;DHT22;6689;53.400;12.486;2023-08-17T12:42:56;24.50;99.90
13245;DHT22;6689;53.400;12.486;2023-08-17T12:45:23;24.70;99.90
13245;DHT22;6689;53.400;12.486;2023-08-17T12:47:50;24.80;99.90
13245;DHT22;6689;53.400;12.486;2023-08-17T12:50:21;24.50;99.90
13245;DHT22;6689;53.400;12.486;2023-08-17T12:52:48;24.70;99.90
13245;DHT22;6689;53.400;12.486;2023-08-17T12:55:15;24.60;99.90
13245;DHT22;6689;53.400;12.486;2023-08-17T12:57:44;24.50;99.90
13245;DHT22;6689;53.400;12.486;2023-08-17T13:00:12;24.60;99.90
13245;DHT22;6689;53.400;12.486;2023-08-17T13:02:40;24.60;99.90
13245;DHT22;6689;53.400;12.486;2023-08-17T13:05:07;24.50;99.90
13245;DHT22;6689;53.400;12.486;2023-08-17T13:07:34;24.50;99.90
13245;DHT22;6689;53.400;12.486;2023-08-17T13:10:01;24.40;99.90
13245;DHT22;6689;53.400;12.486;2023-08-17T13:12:29;24.60;99.90
13245;DHT22;6689;53.400;12.486;2023-08-17T13:14:58;24.40;99.90
13245;DHT22;6689;53.400;12.486;2023-08-17T13:17:26;24.40;99.90
13245;DHT22;6689;53.400;12.486;2023-08-17T13:19:56;24.20;99.90
13245;DHT22;6689;53.400;12.486;2023-08-17T13:22:23;24.00;99.90
13245;DHT22;6689;53.400;12.486;2023-08-17T13:24:50;23.80;99.90
13245;DHT22;6689;53.400;12.486;2023-08-17T13:27:18;23.80;99.90
13245;DHT22;6689;53.400;12.486;2023-08-17T13:29:45;23.60;99.90
13245;DHT22;6689;53.400;12.486;2023-08-17T13:32:14;23.60;99.90
13245;DHT22;6689;53.400;12.486;2023-08-17T13:34:41;23.60;99.90
13245;DHT22;6689;53.400;12.486;2023-08-17T13:37:08;23.30;99.90
13245;DHT22;6689;53.400;12.486;2023-08-17T13:39:36;23.70;99.90
13245;DHT22;6689;53.400;12.486;2023-08-17T13:42:03;23.80;99.90
13245;DHT22;6689;53.400;12.486;2023-08-17T13:44:30;23.70;99.90
13245;DHT22;6689;53.400;12.486;2023-08-17T13:46:57;23.90;99.90
13245;DHT22;6689;53.400;12.486;2023-08-17T13:49:26;23.80;99.90
13245;DHT22;6689;53.400;12.486;2023-08-17T13:51:55;23.70;99.90
13245;DHT22;6689;53.400;12.486;2023-08-17T13:54:23;23.60;99.90
13245;DHT22;6689;53.400;12.486;2023-08-17T13:56:51;23.60;99.90
13245;DHT22;6689;53.400;12.486;2023-08-17T13:59:18;23.40;99.90
13245;DHT22;6689;53.400;12.486;2023-08-17T14:01:46;23.60;99.90
13245;DHT22;6689;53.400;12.486;2023-08-17T14:04:14;23.50;99.90
13245;DHT22;6689;53.400;12.486;2023-08-17T14:06:45;23.70;99.90
13245;DHT22;6689;53.400;12.486;2023-08-17T14:09:14;23.60;99.90
13245;DHT22;6689;53.400;12.486;2023-08-17T14:11:41;23.80;99.90
13245;DHT22;6689;53.400;12.486;2023-08-17T14:14:09;23.90;99.90
13245;DHT22;6689;53.400;12.486;2023-08-17T14:16:37;23.80;99.90
13245;DHT22;6689;53.400;12.486;2023-08-17T14:19:05;24.00;99.90
13245;DHT22;6689;53.400;12.486;2023-08-17T14:21:32;23.80;99.90
13245;DHT22;6689;53.400;12.486;2023-08-17T14:24:01;23.80;99.90
13245;DHT22;6689;53.400;12.486;2023-08-17T14:26:28;23.90;99.90
13245;DHT22;6689;53.400;12.486;2023-08-17T14:28:56;23.80;99.90
13245;DHT22;6689;53.400;12.486;2023-08-17T14:31:23;23.60;99.90
13245;DHT22;6689;53.400;12.486;2023-08-17T14:33:51;23.50;99.90
13245;DHT22;6689;53.400;12.486;2023-08-17T14:36:18;23.70;99.90
13245;DHT22;6689;53.400;12.486;2023-08-17T14:38:46;23.70;99.90
13245;DHT22;6689;53.400;12.486;2023-08-17T14:41:15;23.70;99.90
13245;DHT22;6689;53.400;12.486;2023-08-17T14:43:42;23.80;99.90
13245;DHT22;6689;53.400;12.486;2023-08-17T14:46:10;23.70;99.90
13245;DHT22;6689;53.400;12.486;2023-08-17T14:48:37;23.60;99.90
13245;DHT22;6689;53.400;12.486;2023-08-17T14:51:05;23.60;99.90
13245;DHT22;6689;53.400;12.486;2023-08-17T14:53:33;23.70;99.90
13245;DHT22;6689;53.400;12.486;2023-08-17T14:56:00;23.60;99.90
13245;DHT22;6689;53.400;12.486;2023-08-17T14:58:33;23.60;99.90
13245;DHT22;6689;53.400;12.486;2023-08-17T15:01:01;23.50;99.90
13245;DHT22;6689;53.400;12.486;2023-08-17T15:03:28;23.30;99.90
13245;DHT22;6689;53.400;12.486;2023-08-17T15:05:56;23.30;99.90
13245;DHT22;6689;53.400;12.486;2023-08-17T15:08:23;23.20;99.90
13245;DHT22;6689;53.400;12.486;2023-08-17T15:10:51;23.20;99.90
13245;DHT22;6689;53.400;12.486;2023-08-17T15:13:20;23.20;99.90
13245;DHT22;6689;53.400;12.486;2023-08-17T15:15:51;23.10;99.90
13245;DHT22;6689;53.400;12.486;2023-08-17T15:18:18;23.40;99.90
13245;DHT22;6689;53.400;12.486;2023-08-17T15:20:46;23.50;99.90
13245;DHT22;6689;53.400;12.486;2023-08-17T15:23:13;23.40;99.90
13245;DHT22;6689;53.400;12.486;2023-08-17T15:25:40;23.50;99.90
13245;DHT22;6689;53.400;12.486;2023-08-17T15:28:10;23.50;99.90
13245;DHT22;6689;53.400;12.486;2023-08-17T15:30:37;23.50;99.90
13245;DHT22;6689;53.400;12.486;2023-08-17T15:33:07;23.50;99.90
13245;DHT22;6689;53.400;12.486;2023-08-17T15:35:34;23.40;99.90
13245;DHT22;6689;53.400;12.486;2023-08-17T15:38:06;23.50;99.90
13245;DHT22;6689;53.400;12.486;2023-08-17T15:40:34;23.50;99.90